WMKK/KUL METAR and TAF weather

Enter ICAO airport designator
Station Type Date Time Source
WMKK METAR 2019/04/25 09:30 UTC NOAA

WMKK 250930Z 19003KT 120V280 9999 FEW017CB BKN280 32/26 Q1005 NOSIG


Station Type Date Time Source
WMKK Decoded METAR 2019/04/25 09:30 UTC NOAA

Sepang/KL International Airport, Malaysia (WMKK) 02-44N 101-42E 22M
Apr 25, 2019 - 05:30 AM EDT / 2019.04.25 0930 UTC
Wind: from the S (190 degrees) at 3 MPH (3 KT) (direction variable):0
Visibility: greater than 7 mile(s):0
Sky conditions: mostly cloudy
Weather: Cumulonimbus clouds observed
Temperature: 89 F (32 C)
Heat index: 102.9 F (39.4 C):1
Dew Point: 78 F (26 C)
Relative Humidity: 70%
Pressure (altimeter): 29.68 in. Hg (1005 hPa)
ob: WMKK 250930Z 19003KT 120V280 9999 FEW017CB BKN280 32/26 Q1005 NOSIG
cycle: 9

Station Type Date Time Source
WMKK TAF 2019/04/25 06:12 UTC NOAA

TAF WMKK 250500Z 2506/2612 15005KT 9999 FEW017CB
TEMPO 2507/2511 22006KT 3000 TSRA FEW016CB SCT018
BECMG 2513/2514 VRB02KT FEW030
BECMG 2518/2520 FEW017CB
BECMG 2600/2601 14005KT FEW018

Example: see airport list